sensor_id;sensor_type;location;lat;lon;timestamp;P1;durP1;ratioP1;P2;durP2;ratioP2
55800;SDS011;41730;51.960;20.158;2023-08-30T00:02:45;38.70;;;26.10;;
55800;SDS011;41730;51.960;20.158;2023-08-30T00:05:41;38.70;;;25.80;;
55800;SDS011;41730;51.960;20.158;2023-08-30T00:08:13;38.70;;;25.80;;
55800;SDS011;41730;51.960;20.158;2023-08-30T00:13:18;37.30;;;25.50;;
55800;SDS011;41730;51.960;20.158;2023-08-30T00:15:50;36.80;;;26.40;;
55800;SDS011;41730;51.960;20.158;2023-08-30T00:25:00;40.00;;;25.90;;
55800;SDS011;41730;51.960;20.158;2023-08-30T00:27:32;40.60;;;26.50;;
55800;SDS011;41730;51.960;20.158;2023-08-30T00:30:05;38.10;;;25.20;;
55800;SDS011;41730;51.960;20.158;2023-08-30T00:33:03;39.00;;;25.70;;
55800;SDS011;41730;51.960;20.158;2023-08-30T00:35:36;36.70;;;24.60;;
55800;SDS011;41730;51.960;20.158;2023-08-30T00:38:08;36.30;;;24.90;;
55800;SDS011;41730;51.960;20.158;2023-08-30T00:41:04;39.80;;;27.20;;
55800;SDS011;41730;51.960;20.158;2023-08-30T00:44:00;36.90;;;25.20;;
55800;SDS011;41730;51.960;20.158;2023-08-30T00:46:31;37.30;;;25.20;;
55800;SDS011;41730;51.960;20.158;2023-08-30T00:49:05;38.40;;;25.00;;
55800;SDS011;41730;51.960;20.158;2023-08-30T00:51:37;38.10;;;25.00;;
55800;SDS011;41730;51.960;20.158;2023-08-30T00:58:17;36.30;;;24.50;;
55800;SDS011;41730;51.960;20.158;2023-08-30T01:00:49;40.20;;;24.30;;
55800;SDS011;41730;51.960;20.158;2023-08-30T01:03:45;35.60;;;24.50;;
55800;SDS011;41730;51.960;20.158;2023-08-30T01:06:17;36.80;;;24.60;;
55800;SDS011;41730;51.960;20.158;2023-08-30T01:09:13;41.70;;;26.00;;
55800;SDS011;41730;51.960;20.158;2023-08-30T01:11:45;38.50;;;23.70;;
55800;SDS011;41730;51.960;20.158;2023-08-30T01:14:25;41.30;;;25.30;;
55800;SDS011;41730;51.960;20.158;2023-08-30T01:17:03;39.70;;;25.70;;
55800;SDS011;41730;51.960;20.158;2023-08-30T01:19:39;39.40;;;24.00;;
55800;SDS011;41730;51.960;20.158;2023-08-30T01:22:19;37.40;;;24.30;;
55800;SDS011;41730;51.960;20.158;2023-08-30T01:25:12;41.50;;;25.10;;
55800;SDS011;41730;51.960;20.158;2023-08-30T01:28:12;39.50;;;24.40;;
55800;SDS011;41730;51.960;20.158;2023-08-30T01:31:33;40.30;;;24.20;;
55800;SDS011;41730;51.960;20.158;2023-08-30T01:34:30;38.80;;;23.30;;
55800;SDS011;41730;51.960;20.158;2023-08-30T01:37:27;39.20;;;23.80;;
55800;SDS011;41730;51.960;20.158;2023-08-30T01:39:59;41.50;;;24.60;;
55800;SDS011;41730;51.960;20.158;2023-08-30T01:42:33;40.20;;;24.90;;
55800;SDS011;41730;51.960;20.158;2023-08-30T01:45:09;39.20;;;25.20;;
55800;SDS011;41730;51.960;20.158;2023-08-30T01:47:42;38.70;;;23.50;;
55800;SDS011;41730;51.960;20.158;2023-08-30T01:50:16;38.90;;;24.10;;
55800;SDS011;41730;51.960;20.158;2023-08-30T01:52:49;37.70;;;23.40;;
55800;SDS011;41730;51.960;20.158;2023-08-30T01:55:22;41.10;;;25.00;;
55800;SDS011;41730;51.960;20.158;2023-08-30T01:58:19;41.10;;;24.20;;
55800;SDS011;41730;51.960;20.158;2023-08-30T02:00:51;38.10;;;23.40;;
55800;SDS011;41730;51.960;20.158;2023-08-30T02:03:48;38.10;;;22.90;;
55800;SDS011;41730;51.960;20.158;2023-08-30T02:10:28;44.00;;;24.40;;
55800;SDS011;41730;51.960;20.158;2023-08-30T02:13:04;45.00;;;25.40;;
55800;SDS011;41730;51.960;20.158;2023-08-30T02:15:36;41.00;;;24.00;;
55800;SDS011;41730;51.960;20.158;2023-08-30T02:18:11;41.20;;;24.50;;
55800;SDS011;41730;51.960;20.158;2023-08-30T02:20:44;41.60;;;23.80;;
55800;SDS011;41730;51.960;20.158;2023-08-30T02:23:17;40.20;;;24.40;;
55800;SDS011;41730;51.960;20.158;2023-08-30T02:25:53;42.60;;;24.50;;
55800;SDS011;41730;51.960;20.158;2023-08-30T02:28:48;40.80;;;23.90;;
55800;SDS011;41730;51.960;20.158;2023-08-30T02:31:44;38.20;;;23.40;;
55800;SDS011;41730;51.960;20.158;2023-08-30T02:34:16;38.80;;;24.90;;
55800;SDS011;41730;51.960;20.158;2023-08-30T02:36:47;39.90;;;24.60;;
55800;SDS011;41730;51.960;20.158;2023-08-30T02:42:13;39.40;;;24.40;;
55800;SDS011;41730;51.960;20.158;2023-08-30T02:44:45;37.20;;;23.40;;
55800;SDS011;41730;51.960;20.158;2023-08-30T02:47:41;39.40;;;24.80;;
55800;SDS011;41730;51.960;20.158;2023-08-30T02:50:15;41.70;;;25.10;;
55800;SDS011;41730;51.960;20.158;2023-08-30T02:52:46;42.00;;;25.10;;
55800;SDS011;41730;51.960;20.158;2023-08-30T02:55:18;42.30;;;25.40;;
55800;SDS011;41730;51.960;20.158;2023-08-30T02:57:50;43.20;;;24.50;;
55800;SDS011;41730;51.960;20.158;2023-08-30T03:00:46;45.40;;;25.90;;
55800;SDS011;41730;51.960;20.158;2023-08-30T03:03:41;38.90;;;24.20;;
55800;SDS011;41730;51.960;20.158;2023-08-30T03:06:12;43.70;;;25.30;;
55800;SDS011;41730;51.960;20.158;2023-08-30T03:08:44;40.10;;;24.80;;
55800;SDS011;41730;51.960;20.158;2023-08-30T03:11:19;45.60;;;25.90;;
55800;SDS011;41730;51.960;20.158;2023-08-30T03:13:52;44.60;;;26.00;;
55800;SDS011;41730;51.960;20.158;2023-08-30T03:16:24;43.20;;;24.30;;
55800;SDS011;41730;51.960;20.158;2023-08-30T03:18:57;44.80;;;25.50;;
55800;SDS011;41730;51.960;20.158;2023-08-30T03:21:29;42.70;;;24.80;;
55800;SDS011;41730;51.960;20.158;2023-08-30T03:24:01;46.40;;;24.80;;
55800;SDS011;41730;51.960;20.158;2023-08-30T03:26:33;41.30;;;24.40;;
55800;SDS011;41730;51.960;20.158;2023-08-30T03:29:08;43.50;;;25.30;;
55800;SDS011;41730;51.960;20.158;2023-08-30T03:31:55;41.00;;;24.50;;
55800;SDS011;41730;51.960;20.158;2023-08-30T03:35:02;41.00;;;23.50;;
55800;SDS011;41730;51.960;20.158;2023-08-30T03:37:47;38.80;;;23.00;;
55800;SDS011;41730;51.960;20.158;2023-08-30T03:40:56;39.10;;;22.40;;
55800;SDS011;41730;51.960;20.158;2023-08-30T03:43:43;37.80;;;22.40;;
55800;SDS011;41730;51.960;20.158;2023-08-30T03:46:30;43.60;;;23.30;;
55800;SDS011;41730;51.960;20.158;2023-08-30T03:49:13;39.90;;;22.40;;
55800;SDS011;41730;51.960;20.158;2023-08-30T03:51:45;36.90;;;22.10;;
55800;SDS011;41730;51.960;20.158;2023-08-30T03:54:41;38.90;;;22.50;;
55800;SDS011;41730;51.960;20.158;2023-08-30T03:57:13;38.90;;;21.10;;
55800;SDS011;41730;51.960;20.158;2023-08-30T03:59:48;36.40;;;20.30;;
55800;SDS011;41730;51.960;20.158;2023-08-30T04:02:45;35.50;;;20.80;;
55800;SDS011;41730;51.960;20.158;2023-08-30T04:05:18;38.40;;;21.80;;
55800;SDS011;41730;51.960;20.158;2023-08-30T04:07:50;32.60;;;18.40;;
55800;SDS011;41730;51.960;20.158;2023-08-30T04:10:22;30.30;;;17.80;;
55800;SDS011;41730;51.960;20.158;2023-08-30T04:12:54;29.80;;;17.10;;
55800;SDS011;41730;51.960;20.158;2023-08-30T04:15:25;29.50;;;17.30;;
55800;SDS011;41730;51.960;20.158;2023-08-30T04:17:58;32.20;;;18.00;;
55800;SDS011;41730;51.960;20.158;2023-08-30T04:20:35;27.40;;;17.30;;
55800;SDS011;41730;51.960;20.158;2023-08-30T04:23:12;26.80;;;15.90;;
55800;SDS011;41730;51.960;20.158;2023-08-30T04:25:45;29.50;;;16.60;;
55800;SDS011;41730;51.960;20.158;2023-08-30T04:28:41;31.60;;;16.10;;
55800;SDS011;41730;51.960;20.158;2023-08-30T04:31:13;27.50;;;15.40;;
55800;SDS011;41730;51.960;20.158;2023-08-30T04:34:09;24.40;;;14.90;;
55800;SDS011;41730;51.960;20.158;2023-08-30T04:36:41;25.20;;;15.10;;
55800;SDS011;41730;51.960;20.158;2023-08-30T04:39:14;24.80;;;15.40;;
55800;SDS011;41730;51.960;20.158;2023-08-30T04:41:46;24.10;;;15.10;;
55800;SDS011;41730;51.960;20.158;2023-08-30T04:44:41;24.10;;;14.30;;
55800;SDS011;41730;51.960;20.158;2023-08-30T04:47:13;21.30;;;13.20;;
55800;SDS011;41730;51.960;20.158;2023-08-30T04:49:49;20.90;;;13.10;;
55800;SDS011;41730;51.960;20.158;2023-08-30T04:52:21;21.50;;;13.20;;
55800;SDS011;41730;51.960;20.158;2023-08-30T04:54:53;24.50;;;14.30;;
55800;SDS011;41730;51.960;20.158;2023-08-30T04:57:25;24.50;;;15.50;;
55800;SDS011;41730;51.960;20.158;2023-08-30T04:59:58;27.40;;;15.00;;
55800;SDS011;41730;51.960;20.158;2023-08-30T05:02:33;24.90;;;13.90;;
55800;SDS011;41730;51.960;20.158;2023-08-30T05:05:05;24.20;;;14.50;;
55800;SDS011;41730;51.960;20.158;2023-08-30T05:07:38;23.80;;;14.70;;
55800;SDS011;41730;51.960;20.158;2023-08-30T05:10:10;23.70;;;14.10;;
55800;SDS011;41730;51.960;20.158;2023-08-30T05:13:07;22.90;;;14.40;;
55800;SDS011;41730;51.960;20.158;2023-08-30T05:15:39;24.00;;;14.60;;
55800;SDS011;41730;51.960;20.158;2023-08-30T05:18:36;22.70;;;14.50;;
55800;SDS011;41730;51.960;20.158;2023-08-30T05:21:07;25.20;;;15.10;;
55800;SDS011;41730;51.960;20.158;2023-08-30T05:23:40;27.90;;;16.90;;
55800;SDS011;41730;51.960;20.158;2023-08-30T05:29:08;27.90;;;16.70;;
55800;SDS011;41730;51.960;20.158;2023-08-30T05:31:39;28.70;;;17.30;;
55800;SDS011;41730;51.960;20.158;2023-08-30T05:34:12;30.50;;;18.40;;
55800;SDS011;41730;51.960;20.158;2023-08-30T05:36:43;28.60;;;17.40;;
55800;SDS011;41730;51.960;20.158;2023-08-30T05:39:16;27.50;;;17.60;;
55800;SDS011;41730;51.960;20.158;2023-08-30T05:41:48;29.90;;;17.50;;
55800;SDS011;41730;51.960;20.158;2023-08-30T05:44:44;29.70;;;17.50;;
55800;SDS011;41730;51.960;20.158;2023-08-30T05:47:16;29.80;;;17.10;;
55800;SDS011;41730;51.960;20.158;2023-08-30T05:49:48;28.60;;;17.70;;
55800;SDS011;41730;51.960;20.158;2023-08-30T05:52:44;31.50;;;17.90;;
55800;SDS011;41730;51.960;20.158;2023-08-30T05:55:16;31.40;;;17.20;;
55800;SDS011;41730;51.960;20.158;2023-08-30T05:57:49;28.10;;;17.40;;
55800;SDS011;41730;51.960;20.158;2023-08-30T06:00:21;30.80;;;17.20;;
55800;SDS011;41730;51.960;20.158;2023-08-30T06:02:54;32.90;;;19.10;;
55800;SDS011;41730;51.960;20.158;2023-08-30T06:05:27;31.20;;;18.50;;
55800;SDS011;41730;51.960;20.158;2023-08-30T06:07:59;31.30;;;18.70;;
55800;SDS011;41730;51.960;20.158;2023-08-30T06:10:30;32.00;;;18.30;;
55800;SDS011;41730;51.960;20.158;2023-08-30T06:13:02;33.10;;;18.90;;
55800;SDS011;41730;51.960;20.158;2023-08-30T06:15:59;35.90;;;19.90;;
55800;SDS011;41730;51.960;20.158;2023-08-30T06:18:31;40.70;;;20.90;;
55800;SDS011;41730;51.960;20.158;2023-08-30T06:21:03;35.90;;;19.70;;
55800;SDS011;41730;51.960;20.158;2023-08-30T06:23:37;35.80;;;19.70;;
55800;SDS011;41730;51.960;20.158;2023-08-30T06:26:09;35.20;;;20.10;;
55800;SDS011;41730;51.960;20.158;2023-08-30T06:28:41;41.70;;;20.40;;
55800;SDS011;41730;51.960;20.158;2023-08-30T06:31:30;37.30;;;19.50;;
55800;SDS011;41730;51.960;20.158;2023-08-30T06:34:02;31.80;;;17.70;;
55800;SDS011;41730;51.960;20.158;2023-08-30T06:36:34;35.50;;;19.30;;
55800;SDS011;41730;51.960;20.158;2023-08-30T06:39:06;30.30;;;18.00;;
55800;SDS011;41730;51.960;20.158;2023-08-30T06:41:39;33.80;;;18.40;;
55800;SDS011;41730;51.960;20.158;2023-08-30T06:44:11;31.00;;;17.10;;
55800;SDS011;41730;51.960;20.158;2023-08-30T06:46:44;31.40;;;16.20;;
55800;SDS011;41730;51.960;20.158;2023-08-30T06:49:16;28.40;;;15.40;;
55800;SDS011;41730;51.960;20.158;2023-08-30T06:51:49;28.70;;;16.30;;
55800;SDS011;41730;51.960;20.158;2023-08-30T06:54:21;27.60;;;15.20;;
55800;SDS011;41730;51.960;20.158;2023-08-30T06:56:59;27.30;;;15.60;;
55800;SDS011;41730;51.960;20.158;2023-08-30T06:59:32;31.60;;;16.40;;
55800;SDS011;41730;51.960;20.158;2023-08-30T07:02:04;27.90;;;15.50;;
55800;SDS011;41730;51.960;20.158;2023-08-30T07:05:01;26.00;;;14.90;;
55800;SDS011;41730;51.960;20.158;2023-08-30T07:07:33;25.10;;;15.10;;
55800;SDS011;41730;51.960;20.158;2023-08-30T07:10:06;24.40;;;14.80;;
55800;SDS011;41730;51.960;20.158;2023-08-30T07:12:41;26.90;;;15.70;;
55800;SDS011;41730;51.960;20.158;2023-08-30T07:15:17;27.90;;;15.90;;
55800;SDS011;41730;51.960;20.158;2023-08-30T07:17:49;29.60;;;16.40;;
55800;SDS011;41730;51.960;20.158;2023-08-30T07:20:44;29.70;;;14.90;;
55800;SDS011;41730;51.960;20.158;2023-08-30T07:23:16;28.30;;;14.60;;
55800;SDS011;41730;51.960;20.158;2023-08-30T07:25:49;29.70;;;14.90;;
55800;SDS011;41730;51.960;20.158;2023-08-30T07:28:47;27.10;;;14.20;;
55800;SDS011;41730;51.960;20.158;2023-08-30T07:32:08;27.80;;;14.20;;
55800;SDS011;41730;51.960;20.158;2023-08-30T07:34:40;24.70;;;14.10;;
55800;SDS011;41730;51.960;20.158;2023-08-30T07:37:20;27.50;;;14.30;;
55800;SDS011;41730;51.960;20.158;2023-08-30T07:39:52;26.40;;;14.00;;
55800;SDS011;41730;51.960;20.158;2023-08-30T07:42:25;23.00;;;13.50;;
55800;SDS011;41730;51.960;20.158;2023-08-30T07:44:58;23.40;;;12.70;;
55800;SDS011;41730;51.960;20.158;2023-08-30T07:47:53;20.80;;;11.60;;
55800;SDS011;41730;51.960;20.158;2023-08-30T07:50:25;23.20;;;12.20;;
55800;SDS011;41730;51.960;20.158;2023-08-30T07:52:57;24.10;;;12.40;;
55800;SDS011;41730;51.960;20.158;2023-08-30T07:55:52;20.00;;;11.40;;
55800;SDS011;41730;51.960;20.158;2023-08-30T07:58:47;21.30;;;11.40;;
55800;SDS011;41730;51.960;20.158;2023-08-30T08:01:43;23.00;;;12.40;;
55800;SDS011;41730;51.960;20.158;2023-08-30T08:04:15;20.30;;;11.60;;
55800;SDS011;41730;51.960;20.158;2023-08-30T08:07:10;19.90;;;11.70;;
55800;SDS011;41730;51.960;20.158;2023-08-30T08:09:43;21.20;;;11.80;;
55800;SDS011;41730;51.960;20.158;2023-08-30T08:12:14;21.20;;;11.90;;
55800;SDS011;41730;51.960;20.158;2023-08-30T08:14:46;21.70;;;12.10;;
55800;SDS011;41730;51.960;20.158;2023-08-30T08:17:21;19.90;;;10.80;;
55800;SDS011;41730;51.960;20.158;2023-08-30T08:19:53;18.10;;;10.50;;
55800;SDS011;41730;51.960;20.158;2023-08-30T08:25:43;19.80;;;11.60;;
55800;SDS011;41730;51.960;20.158;2023-08-30T08:28:14;18.20;;;10.30;;
55800;SDS011;41730;51.960;20.158;2023-08-30T08:30:47;19.80;;;10.40;;
55800;SDS011;41730;51.960;20.158;2023-08-30T08:33:42;18.20;;;10.20;;
55800;SDS011;41730;51.960;20.158;2023-08-30T08:36:15;17.40;;;9.70;;
55800;SDS011;41730;51.960;20.158;2023-08-30T08:39:10;17.90;;;10.50;;
55800;SDS011;41730;51.960;20.158;2023-08-30T08:41:43;16.40;;;9.90;;
55800;SDS011;41730;51.960;20.158;2023-08-30T08:44:17;16.50;;;9.70;;
55800;SDS011;41730;51.960;20.158;2023-08-30T08:46:51;18.20;;;9.40;;
55800;SDS011;41730;51.960;20.158;2023-08-30T08:49:24;18.00;;;10.00;;
55800;SDS011;41730;51.960;20.158;2023-08-30T08:52:01;16.80;;;9.70;;
55800;SDS011;41730;51.960;20.158;2023-08-30T08:54:54;16.80;;;9.50;;
55800;SDS011;41730;51.960;20.158;2023-08-30T08:57:29;15.60;;;9.10;;
55800;SDS011;41730;51.960;20.158;2023-08-30T09:00:03;17.40;;;9.40;;
55800;SDS011;41730;51.960;20.158;2023-08-30T09:02:36;15.30;;;8.60;;
55800;SDS011;41730;51.960;20.158;2023-08-30T09:05:11;16.90;;;9.30;;
55800;SDS011;41730;51.960;20.158;2023-08-30T09:07:45;17.20;;;9.70;;
55800;SDS011;41730;51.960;20.158;2023-08-30T09:10:22;18.80;;;10.10;;
55800;SDS011;41730;51.960;20.158;2023-08-30T09:12:54;19.20;;;11.50;;
55800;SDS011;41730;51.960;20.158;2023-08-30T09:15:31;16.80;;;9.50;;
55800;SDS011;41730;51.960;20.158;2023-08-30T09:18:13;17.10;;;10.10;;
55800;SDS011;41730;51.960;20.158;2023-08-30T09:20:46;19.80;;;10.80;;
55800;SDS011;41730;51.960;20.158;2023-08-30T09:23:18;17.10;;;9.80;;
55800;SDS011;41730;51.960;20.158;2023-08-30T09:25:55;18.90;;;10.40;;
55800;SDS011;41730;51.960;20.158;2023-08-30T09:35:12;19.30;;;10.70;;
55800;SDS011;41730;51.960;20.158;2023-08-30T09:38:15;19.40;;;10.60;;
55800;SDS011;41730;51.960;20.158;2023-08-30T09:40:50;18.90;;;10.90;;
55800;SDS011;41730;51.960;20.158;2023-08-30T09:43:46;22.30;;;11.50;;
55800;SDS011;41730;51.960;20.158;2023-08-30T09:46:41;20.20;;;11.70;;
55800;SDS011;41730;51.960;20.158;2023-08-30T09:49:20;21.00;;;11.60;;
55800;SDS011;41730;51.960;20.158;2023-08-30T09:51:53;22.70;;;11.40;;
55800;SDS011;41730;51.960;20.158;2023-08-30T09:54:27;22.40;;;12.20;;
55800;SDS011;41730;51.960;20.158;2023-08-30T09:57:07;23.10;;;12.20;;
55800;SDS011;41730;51.960;20.158;2023-08-30T09:59:39;22.90;;;12.40;;
55800;SDS011;41730;51.960;20.158;2023-08-30T10:02:12;19.90;;;11.90;;
55800;SDS011;41730;51.960;20.158;2023-08-30T10:04:45;21.50;;;12.30;;
55800;SDS011;41730;51.960;20.158;2023-08-30T10:07:18;21.80;;;11.80;;
55800;SDS011;41730;51.960;20.158;2023-08-30T10:09:52;22.30;;;12.30;;
55800;SDS011;41730;51.960;20.158;2023-08-30T10:12:47;22.70;;;12.50;;
55800;SDS011;41730;51.960;20.158;2023-08-30T10:15:39;23.30;;;12.20;;
55800;SDS011;41730;51.960;20.158;2023-08-30T10:18:15;22.50;;;12.00;;
55800;SDS011;41730;51.960;20.158;2023-08-30T10:20:52;22.90;;;12.10;;
55800;SDS011;41730;51.960;20.158;2023-08-30T10:23:26;20.50;;;11.60;;
55800;SDS011;41730;51.960;20.158;2023-08-30T10:25:59;20.30;;;11.70;;
55800;SDS011;41730;51.960;20.158;2023-08-30T10:28:33;16.10;;;10.40;;
55800;SDS011;41730;51.960;20.158;2023-08-30T10:31:06;18.60;;;10.90;;
55800;SDS011;41730;51.960;20.158;2023-08-30T10:33:47;17.60;;;10.60;;
55800;SDS011;41730;51.960;20.158;2023-08-30T10:36:23;17.30;;;10.00;;
55800;SDS011;41730;51.960;20.158;2023-08-30T10:38:55;18.20;;;9.90;;
55800;SDS011;41730;51.960;20.158;2023-08-30T10:41:27;15.20;;;10.00;;
55800;SDS011;41730;51.960;20.158;2023-08-30T10:44:01;14.70;;;8.30;;
55800;SDS011;41730;51.960;20.158;2023-08-30T10:46:34;12.50;;;8.10;;
55800;SDS011;41730;51.960;20.158;2023-08-30T10:49:12;13.20;;;8.20;;
55800;SDS011;41730;51.960;20.158;2023-08-30T10:52:11;11.00;;;7.50;;
55800;SDS011;41730;51.960;20.158;2023-08-30T10:54:43;11.90;;;7.90;;
55800;SDS011;41730;51.960;20.158;2023-08-30T10:57:15;13.00;;;8.20;;
55800;SDS011;41730;51.960;20.158;2023-08-30T11:05:16;12.70;;;7.80;;
55800;SDS011;41730;51.960;20.158;2023-08-30T11:07:50;14.00;;;8.40;;
55800;SDS011;41730;51.960;20.158;2023-08-30T11:10:46;11.60;;;7.60;;
55800;SDS011;41730;51.960;20.158;2023-08-30T11:13:18;14.10;;;8.50;;
55800;SDS011;41730;51.960;20.158;2023-08-30T11:15:53;13.90;;;9.00;;
55800;SDS011;41730;51.960;20.158;2023-08-30T11:18:30;14.30;;;9.60;;
55800;SDS011;41730;51.960;20.158;2023-08-30T11:21:06;17.70;;;11.60;;
55800;SDS011;41730;51.960;20.158;2023-08-30T11:24:05;18.30;;;11.10;;
55800;SDS011;41730;51.960;20.158;2023-08-30T11:32:03;13.70;;;9.40;;
55800;SDS011;41730;51.960;20.158;2023-08-30T11:35:00;18.10;;;10.90;;
55800;SDS011;41730;51.960;20.158;2023-08-30T11:37:33;16.00;;;10.40;;
55800;SDS011;41730;51.960;20.158;2023-08-30T11:40:05;16.80;;;10.80;;
55800;SDS011;41730;51.960;20.158;2023-08-30T11:43:04;16.20;;;10.30;;
55800;SDS011;41730;51.960;20.158;2023-08-30T11:45:38;13.00;;;9.30;;
55800;SDS011;41730;51.960;20.158;2023-08-30T11:48:10;15.90;;;9.50;;
55800;SDS011;41730;51.960;20.158;2023-08-30T11:50:45;15.80;;;8.80;;
55800;SDS011;41730;51.960;20.158;2023-08-30T11:53:22;14.40;;;9.40;;
55800;SDS011;41730;51.960;20.158;2023-08-30T11:55:55;13.10;;;7.50;;
55800;SDS011;41730;51.960;20.158;2023-08-30T11:58:28;14.30;;;7.90;;
55800;SDS011;41730;51.960;20.158;2023-08-30T12:01:03;15.60;;;9.10;;
55800;SDS011;41730;51.960;20.158;2023-08-30T12:03:37;12.90;;;8.00;;
55800;SDS011;41730;51.960;20.158;2023-08-30T12:06:12;12.40;;;7.40;;
55800;SDS011;41730;51.960;20.158;2023-08-30T12:08:44;10.90;;;7.30;;
55800;SDS011;41730;51.960;20.158;2023-08-30T12:11:20;12.10;;;7.20;;
55800;SDS011;41730;51.960;20.158;2023-08-30T12:13:52;11.90;;;6.40;;
55800;SDS011;41730;51.960;20.158;2023-08-30T12:16:56;9.20;;;6.10;;
55800;SDS011;41730;51.960;20.158;2023-08-30T12:19:32;8.90;;;5.50;;
55800;SDS011;41730;51.960;20.158;2023-08-30T12:22:05;9.40;;;6.10;;
55800;SDS011;41730;51.960;20.158;2023-08-30T12:24:44;9.60;;;6.10;;
55800;SDS011;41730;51.960;20.158;2023-08-30T12:27:16;9.30;;;5.90;;
55800;SDS011;41730;51.960;20.158;2023-08-30T12:30:12;11.30;;;6.20;;
55800;SDS011;41730;51.960;20.158;2023-08-30T12:32:46;10.10;;;6.20;;
55800;SDS011;41730;51.960;20.158;2023-08-30T12:35:19;8.90;;;5.80;;
55800;SDS011;41730;51.960;20.158;2023-08-30T12:37:51;8.80;;;6.10;;
55800;SDS011;41730;51.960;20.158;2023-08-30T12:40:23;9.30;;;5.70;;
55800;SDS011;41730;51.960;20.158;2023-08-30T12:42:58;13.90;;;8.90;;
55800;SDS011;41730;51.960;20.158;2023-08-30T12:45:30;13.50;;;8.30;;
55800;SDS011;41730;51.960;20.158;2023-08-30T12:48:02;8.80;;;5.70;;
55800;SDS011;41730;51.960;20.158;2023-08-30T12:50:34;9.80;;;6.00;;
55800;SDS011;41730;51.960;20.158;2023-08-30T12:53:07;8.60;;;5.50;;
55800;SDS011;41730;51.960;20.158;2023-08-30T12:55:39;7.10;;;5.20;;
55800;SDS011;41730;51.960;20.158;2023-08-30T12:58:11;8.30;;;5.70;;
55800;SDS011;41730;51.960;20.158;2023-08-30T13:00:45;7.30;;;5.30;;
55800;SDS011;41730;51.960;20.158;2023-08-30T13:03:17;7.30;;;4.90;;
55800;SDS011;41730;51.960;20.158;2023-08-30T13:05:50;8.00;;;5.40;;
55800;SDS011;41730;51.960;20.158;2023-08-30T13:08:22;8.80;;;5.80;;
55800;SDS011;41730;51.960;20.158;2023-08-30T13:10:54;8.80;;;6.00;;
55800;SDS011;41730;51.960;20.158;2023-08-30T13:13:28;7.30;;;5.20;;
55800;SDS011;41730;51.960;20.158;2023-08-30T13:16:00;8.90;;;6.10;;
55800;SDS011;41730;51.960;20.158;2023-08-30T13:18:32;9.90;;;6.60;;
55800;SDS011;41730;51.960;20.158;2023-08-30T13:21:27;8.20;;;5.90;;
55800;SDS011;41730;51.960;20.158;2023-08-30T13:24:08;10.00;;;6.60;;
55800;SDS011;41730;51.960;20.158;2023-08-30T13:27:05;8.60;;;6.20;;
55800;SDS011;41730;51.960;20.158;2023-08-30T13:30:00;10.90;;;6.30;;
55800;SDS011;41730;51.960;20.158;2023-08-30T13:32:57;7.20;;;5.60;;
55800;SDS011;41730;51.960;20.158;2023-08-30T13:35:30;8.40;;;5.70;;
55800;SDS011;41730;51.960;20.158;2023-08-30T13:38:03;8.70;;;6.00;;
55800;SDS011;41730;51.960;20.158;2023-08-30T13:40:36;8.40;;;6.40;;
55800;SDS011;41730;51.960;20.158;2023-08-30T13:43:08;9.50;;;6.10;;
55800;SDS011;41730;51.960;20.158;2023-08-30T13:45:42;7.70;;;5.70;;
55800;SDS011;41730;51.960;20.158;2023-08-30T13:48:16;6.10;;;4.60;;
55800;SDS011;41730;51.960;20.158;2023-08-30T13:50:50;5.50;;;4.00;;
55800;SDS011;41730;51.960;20.158;2023-08-30T13:53:22;6.50;;;4.70;;
55800;SDS011;41730;51.960;20.158;2023-08-30T13:55:54;6.20;;;4.80;;
55800;SDS011;41730;51.960;20.158;2023-08-30T13:58:27;7.90;;;5.40;;
55800;SDS011;41730;51.960;20.158;2023-08-30T14:00:59;6.60;;;4.70;;
55800;SDS011;41730;51.960;20.158;2023-08-30T14:03:33;8.80;;;5.50;;
55800;SDS011;41730;51.960;20.158;2023-08-30T14:06:05;8.80;;;5.40;;
55800;SDS011;41730;51.960;20.158;2023-08-30T14:08:38;9.20;;;6.00;;
55800;SDS011;41730;51.960;20.158;2023-08-30T14:11:11;9.00;;;5.40;;
55800;SDS011;41730;51.960;20.158;2023-08-30T14:13:44;9.70;;;6.40;;
55800;SDS011;41730;51.960;20.158;2023-08-30T14:16:16;12.20;;;6.60;;
55800;SDS011;41730;51.960;20.158;2023-08-30T14:18:49;12.90;;;7.70;;
55800;SDS011;41730;51.960;20.158;2023-08-30T14:21:22;9.80;;;7.10;;
55800;SDS011;41730;51.960;20.158;2023-08-30T14:23:54;11.10;;;7.40;;
55800;SDS011;41730;51.960;20.158;2023-08-30T14:26:27;9.80;;;7.10;;
55800;SDS011;41730;51.960;20.158;2023-08-30T14:28:59;9.80;;;6.80;;
55800;SDS011;41730;51.960;20.158;2023-08-30T14:31:32;11.50;;;7.80;;
55800;SDS011;41730;51.960;20.158;2023-08-30T14:34:05;11.90;;;7.80;;
55800;SDS011;41730;51.960;20.158;2023-08-30T14:36:39;9.90;;;7.20;;
55800;SDS011;41730;51.960;20.158;2023-08-30T14:39:17;13.20;;;6.60;;
55800;SDS011;41730;51.960;20.158;2023-08-30T14:41:52;10.80;;;6.60;;
55800;SDS011;41730;51.960;20.158;2023-08-30T14:44:27;11.20;;;6.70;;
55800;SDS011;41730;51.960;20.158;2023-08-30T14:47:02;9.60;;;6.60;;
55800;SDS011;41730;51.960;20.158;2023-08-30T14:49:37;9.70;;;6.10;;
55800;SDS011;41730;51.960;20.158;2023-08-30T14:52:10;8.40;;;6.00;;
55800;SDS011;41730;51.960;20.158;2023-08-30T14:54:43;8.50;;;6.00;;
55800;SDS011;41730;51.960;20.158;2023-08-30T14:57:16;9.30;;;6.20;;
55800;SDS011;41730;51.960;20.158;2023-08-30T14:59:49;7.70;;;5.40;;
55800;SDS011;41730;51.960;20.158;2023-08-30T15:02:22;8.50;;;5.40;;
55800;SDS011;41730;51.960;20.158;2023-08-30T15:04:56;7.80;;;5.40;;
55800;SDS011;41730;51.960;20.158;2023-08-30T15:07:29;8.50;;;6.00;;
55800;SDS011;41730;51.960;20.158;2023-08-30T15:10:03;10.60;;;5.80;;
55800;SDS011;41730;51.960;20.158;2023-08-30T15:12:38;8.50;;;6.40;;
55800;SDS011;41730;51.960;20.158;2023-08-30T15:15:11;8.80;;;6.10;;
55800;SDS011;41730;51.960;20.158;2023-08-30T15:17:44;10.00;;;7.00;;
55800;SDS011;41730;51.960;20.158;2023-08-30T15:20:18;9.00;;;5.90;;
55800;SDS011;41730;51.960;20.158;2023-08-30T15:22:54;7.50;;;5.80;;
55800;SDS011;41730;51.960;20.158;2023-08-30T15:25:52;9.90;;;5.90;;
55800;SDS011;41730;51.960;20.158;2023-08-30T15:28:50;9.40;;;6.00;;
55800;SDS011;41730;51.960;20.158;2023-08-30T15:31:25;7.70;;;6.00;;
55800;SDS011;41730;51.960;20.158;2023-08-30T15:33:57;9.90;;;6.40;;
55800;SDS011;41730;51.960;20.158;2023-08-30T15:36:31;9.50;;;6.20;;
55800;SDS011;41730;51.960;20.158;2023-08-30T15:39:03;8.70;;;6.10;;
55800;SDS011;41730;51.960;20.158;2023-08-30T15:41:38;8.70;;;6.70;;
55800;SDS011;41730;51.960;20.158;2023-08-30T15:44:12;12.30;;;6.80;;
55800;SDS011;41730;51.960;20.158;2023-08-30T15:46:44;9.20;;;6.30;;
55800;SDS011;41730;51.960;20.158;2023-08-30T15:49:17;8.90;;;6.40;;
55800;SDS011;41730;51.960;20.158;2023-08-30T15:51:50;11.00;;;6.60;;
55800;SDS011;41730;51.960;20.158;2023-08-30T15:54:23;10.00;;;6.70;;
55800;SDS011;41730;51.960;20.158;2023-08-30T15:56:56;9.60;;;6.80;;
55800;SDS011;41730;51.960;20.158;2023-08-30T15:59:29;9.50;;;6.10;;
55800;SDS011;41730;51.960;20.158;2023-08-30T16:02:04;9.00;;;7.00;;